createdAt,value
2019-04-06T00:01:11.609Z,78.70
2019-04-06T00:03:37.861Z,78.70
2019-04-06T00:06:04.345Z,78.60
2019-04-06T00:08:30.583Z,78.60
2019-04-06T00:10:56.812Z,78.60
2019-04-06T00:13:23.068Z,78.60
2019-04-06T00:15:49.289Z,78.50
2019-04-06T00:18:15.545Z,78.50
2019-04-06T00:20:41.872Z,78.60
2019-04-06T00:23:08.244Z,78.50
2019-04-06T00:25:43.781Z,78.50
2019-04-06T00:28:02.750Z,78.40
2019-04-06T00:30:30.892Z,78.30
2019-04-06T00:33:04.723Z,78.40
2019-04-06T00:35:30.947Z,78.50
2019-04-06T00:37:57.217Z,78.80
2019-04-06T00:40:23.463Z,78.90
2019-04-06T00:42:49.694Z,78.90
2019-04-06T00:45:16.032Z,79.10
2019-04-06T00:47:42.274Z,78.90
2019-04-06T00:50:09.058Z,78.70
2019-04-06T00:52:35.236Z,78.50
2019-04-06T00:55:01.488Z,78.40
2019-04-06T00:57:27.757Z,78.40
2019-04-06T00:59:54.019Z,78.40
2019-04-06T01:02:20.217Z,78.50
2019-04-06T01:04:46.466Z,78.60
2019-04-06T01:07:12.693Z,78.60
2019-04-06T01:09:39.046Z,78.80
2019-04-06T01:12:05.384Z,78.80
2019-04-06T01:14:31.637Z,79.00
2019-04-06T01:16:57.986Z,79.00
2019-04-06T01:19:24.255Z,79.20
2019-04-06T01:21:50.505Z,79.40
2019-04-06T01:24:16.728Z,79.40
2019-04-06T01:26:42.962Z,79.60
2019-04-06T01:29:09.189Z,79.70
2019-04-06T01:31:35.457Z,79.80
2019-04-06T01:34:01.958Z,79.80
2019-04-06T01:36:28.186Z,79.90
2019-04-06T01:38:54.412Z,80.10
2019-04-06T01:41:20.663Z,80.20
2019-04-06T01:43:46.891Z,80.20
2019-04-06T01:46:13.149Z,80.30
2019-04-06T01:48:39.422Z,80.40
2019-04-06T01:51:05.773Z,80.40
2019-04-06T01:53:32.030Z,81.10
2019-04-06T01:55:58.274Z,80.50
2019-04-06T01:58:24.492Z,80.50
2019-04-06T02:01:01.374Z,80.60
2019-04-06T02:03:27.603Z,80.70
2019-04-06T02:05:53.978Z,80.70
2019-04-06T02:08:20.218Z,80.70
2019-04-06T02:10:46.522Z,80.50
2019-04-06T02:13:12.693Z,80.40
2019-04-06T02:15:38.923Z,80.60
2019-04-06T02:18:06.058Z,80.60
2019-04-06T02:20:32.423Z,80.70
2019-04-06T02:22:58.931Z,80.80
2019-04-06T02:25:25.174Z,80.70
2019-04-06T02:27:51.486Z,80.90
2019-04-06T02:30:28.280Z,80.80
2019-04-06T02:32:59.315Z,81.30
2019-04-06T02:35:27.562Z,81.00
2019-04-06T02:38:01.630Z,80.90
2019-04-06T02:40:38.514Z,80.70
2019-04-06T02:43:06.657Z,80.30
2019-04-06T02:45:32.885Z,80.90
2019-04-06T02:47:59.140Z,80.80
2019-04-06T02:50:25.556Z,80.30
2019-04-06T02:52:51.810Z,80.50
2019-04-06T02:55:18.049Z,80.50
2019-04-06T02:57:44.297Z,80.60
2019-04-06T03:00:10.740Z,80.60
2019-04-06T03:02:37.080Z,80.60
2019-04-06T03:05:05.611Z,80.60
2019-04-06T03:07:31.844Z,80.80
2019-04-06T03:09:58.466Z,80.80
2019-04-06T03:12:24.805Z,80.90
2019-04-06T03:14:51.056Z,81.10
2019-04-06T03:17:17.331Z,81.20
2019-04-06T03:19:43.960Z,81.40
2019-04-06T03:22:10.228Z,81.70
2019-04-06T03:24:36.470Z,81.80
2019-04-06T03:27:03.258Z,81.90
2019-04-06T03:29:29.527Z,81.90
2019-04-06T03:31:55.807Z,82.00
2019-04-06T03:34:22.845Z,81.90
2019-04-06T03:36:49.554Z,82.00
2019-04-06T03:39:15.803Z,82.90
2019-04-06T03:41:41.983Z,82.30
2019-04-06T03:44:08.211Z,82.30
2019-04-06T03:46:34.462Z,82.40
2019-04-06T03:49:00.729Z,82.50
2019-04-06T03:51:26.937Z,82.70
2019-04-06T03:53:53.276Z,82.70
2019-04-06T03:56:19.516Z,82.80
2019-04-06T03:58:45.759Z,82.80
2019-04-06T04:01:12.081Z,82.80
2019-04-06T04:03:38.325Z,82.80
2019-04-06T04:06:04.839Z,82.90
2019-04-06T04:08:31.233Z,83.10
2019-04-06T04:10:57.456Z,83.00
2019-04-06T04:13:24.016Z,82.90
2019-04-06T04:15:50.350Z,83.10
2019-04-06T04:18:16.580Z,83.10
2019-04-06T04:20:42.880Z,83.10
2019-04-06T04:23:09.174Z,83.20
2019-04-06T04:25:35.577Z,83.10
2019-04-06T04:28:01.854Z,83.00
2019-04-06T04:30:32.977Z,83.00
2019-04-06T04:32:56.234Z,83.10
2019-04-06T04:35:22.701Z,83.00
2019-04-06T04:37:49.281Z,83.10
2019-04-06T04:40:15.749Z,83.00
2019-04-06T04:42:42.080Z,82.90
2019-04-06T04:45:08.609Z,82.80
2019-04-06T04:47:34.957Z,82.80
2019-04-06T04:50:01.513Z,82.70
2019-04-06T04:52:27.793Z,82.50
2019-04-06T04:54:54.030Z,82.00
2019-04-06T04:57:20.429Z,82.20
2019-04-06T04:59:46.624Z,82.20
2019-04-06T05:02:12.836Z,82.40
2019-04-06T05:04:39.343Z,82.40
2019-04-06T05:07:05.572Z,82.40
2019-04-06T05:09:31.808Z,82.50
2019-04-06T05:11:58.043Z,82.10
2019-04-06T05:14:56.828Z,82.10
2019-04-06T05:17:23.246Z,82.00
2019-04-06T05:19:49.466Z,81.90
2019-04-06T05:22:15.689Z,81.90
2019-04-06T05:24:42.011Z,81.90
2019-04-06T05:27:08.247Z,82.20
2019-04-06T05:29:34.506Z,82.30
2019-04-06T05:32:00.728Z,82.00
2019-04-06T05:34:26.978Z,83.00
2019-04-06T05:36:53.199Z,82.20
2019-04-06T05:39:19.571Z,82.20
2019-04-06T05:41:45.751Z,82.20
2019-04-06T05:44:12.014Z,82.10
2019-04-06T05:46:38.255Z,82.10
2019-04-06T05:49:04.756Z,82.10
2019-04-06T05:51:30.978Z,81.90
2019-04-06T05:53:57.221Z,81.80
2019-04-06T05:56:23.434Z,81.70
2019-04-06T05:58:49.736Z,80.60
2019-04-06T06:01:16.321Z,80.70
2019-04-06T06:03:42.583Z,81.60
2019-04-06T06:06:08.847Z,83.10
2019-04-06T06:08:35.072Z,82.70
2019-04-06T06:11:01.314Z,81.30
2019-04-06T06:13:27.536Z,80.10
2019-04-06T06:15:53.768Z,80.20
2019-04-06T06:18:26.355Z,80.70
2019-04-06T06:20:48.421Z,80.20
2019-04-06T06:23:15.009Z,79.20
2019-04-06T06:25:41.236Z,79.20
2019-04-06T06:28:14.176Z,79.90
2019-04-06T06:30:35.939Z,80.70
2019-04-06T06:33:02.493Z,79.00
2019-04-06T06:35:28.844Z,78.70
2019-04-06T06:37:55.103Z,78.50
2019-04-06T06:40:21.357Z,78.40
2019-04-06T06:42:47.576Z,77.30
2019-04-06T06:45:16.373Z,77.40
2019-04-06T06:47:42.690Z,79.70
2019-04-06T06:50:11.474Z,77.50
2019-04-06T06:52:43.018Z,76.60
2019-04-06T06:55:09.697Z,76.90
2019-04-06T06:57:36.103Z,91.80
2019-04-06T07:00:04.190Z,84.60
2019-04-06T07:02:30.650Z,77.20
2019-04-06T07:04:56.950Z,76.60
2019-04-06T07:07:23.290Z,74.80
2019-04-06T07:09:49.504Z,74.40
2019-04-06T07:12:15.772Z,73.50
2019-04-06T07:14:42.006Z,73.40
2019-04-06T07:17:08.268Z,75.00
2019-04-06T07:19:34.482Z,74.80
2019-04-06T07:22:00.757Z,75.20
2019-04-06T07:24:27.007Z,75.90
2019-04-06T07:26:53.219Z,76.20
2019-04-06T07:29:19.469Z,76.30
2019-04-06T07:31:45.749Z,76.30
2019-04-06T07:34:12.075Z,76.30
2019-04-06T07:36:38.314Z,76.30
2019-04-06T07:39:05.261Z,77.20
2019-04-06T07:41:31.488Z,75.90
2019-04-06T07:43:57.729Z,75.60
2019-04-06T07:46:23.969Z,76.00
2019-04-06T07:48:50.211Z,76.30
2019-04-06T07:51:16.435Z,76.40
2019-04-06T07:53:42.672Z,76.40
2019-04-06T07:56:08.903Z,76.50
2019-04-06T07:58:35.153Z,76.40
2019-04-06T08:01:01.504Z,76.30
2019-04-06T08:03:27.787Z,76.10
2019-04-06T08:05:54.011Z,74.60
2019-04-06T08:08:20.271Z,74.40
2019-04-06T08:10:46.999Z,74.60
2019-04-06T08:13:13.231Z,74.10
2019-04-06T08:15:39.478Z,73.80
2019-04-06T08:18:05.801Z,73.60
2019-04-06T08:20:32.013Z,73.70
2019-04-06T08:22:58.350Z,73.90
2019-04-06T08:25:24.598Z,74.00
2019-04-06T08:27:50.828Z,73.90
2019-04-06T08:30:17.257Z,73.00
2019-04-06T08:32:43.477Z,73.00
2019-04-06T08:35:10.822Z,72.40
2019-04-06T08:37:37.087Z,71.40
2019-04-06T08:40:05.609Z,71.30
2019-04-06T08:42:31.916Z,70.60
2019-04-06T08:44:58.086Z,70.10
2019-04-06T08:47:24.697Z,69.50
2019-04-06T08:49:50.927Z,69.10
2019-04-06T08:52:17.171Z,70.00
2019-04-06T08:54:43.426Z,68.70
2019-04-06T08:57:09.662Z,68.00
2019-04-06T08:59:35.876Z,67.30
2019-04-06T09:02:02.163Z,66.80
2019-04-06T09:04:28.360Z,67.80
2019-04-06T09:06:54.685Z,68.00
2019-04-06T09:09:20.962Z,67.20
2019-04-06T09:11:47.239Z,66.40
2019-04-06T09:14:15.451Z,64.90
2019-04-06T09:16:41.793Z,63.40
2019-04-06T09:19:08.020Z,63.10
2019-04-06T09:21:34.261Z,61.30
2019-04-06T09:24:00.505Z,61.20
2019-04-06T09:26:26.927Z,60.30
2019-04-06T09:28:53.200Z,60.60
2019-04-06T09:31:19.435Z,59.10
2019-04-06T09:33:45.721Z,59.10
2019-04-06T09:36:12.073Z,59.10
2019-04-06T09:38:38.307Z,59.80
2019-04-06T09:41:04.649Z,59.60
2019-04-06T09:43:30.916Z,59.90
2019-04-06T09:46:17.117Z,58.70
2019-04-06T09:48:48.282Z,56.60
2019-04-06T09:51:19.337Z,57.80
2019-04-06T09:54:06.359Z,56.50
2019-04-06T09:56:43.152Z,57.50
2019-04-06T09:59:11.296Z,56.90
2019-04-06T10:01:54.420Z,56.30
2019-04-06T10:04:40.750Z,57.10
2019-04-06T10:07:21.067Z,56.00
2019-04-06T10:09:52.214Z,55.40
2019-04-06T10:12:37.138Z,54.20
2019-04-06T10:15:23.680Z,55.20
2019-04-06T10:18:03.836Z,54.50
2019-04-06T10:20:44.142Z,55.10
2019-04-06T10:23:29.127Z,53.10
2019-04-06T10:26:13.632Z,54.90
2019-04-06T10:28:58.183Z,56.30
2019-04-06T10:31:28.965Z,56.40
2019-04-06T10:34:03.122Z,58.70
2019-04-06T10:36:40.177Z,58.00
2019-04-06T10:39:08.350Z,56.70
2019-04-06T10:41:39.154Z,56.90
2019-04-06T10:44:13.204Z,57.10
2019-04-06T10:46:41.339Z,56.40
2019-04-06T10:49:15.642Z,56.20
2019-04-06T10:52:00.760Z,57.60
2019-04-06T10:54:45.707Z,56.50
2019-04-06T10:57:19.956Z,55.40
2019-04-06T11:00:11.836Z,56.70
2019-04-06T11:02:46.074Z,55.50
2019-04-06T11:05:14.344Z,55.30
2019-04-06T11:07:51.737Z,56.70
2019-04-06T11:10:29.014Z,56.20
2019-04-06T11:13:14.033Z,56.00
2019-04-06T11:15:44.786Z,56.40
2019-04-06T11:18:15.857Z,56.90
2019-04-06T11:20:44.017Z,57.40
2019-04-06T11:23:18.574Z,57.40
2019-04-06T11:25:49.704Z,57.30
2019-04-06T11:28:23.538Z,57.40
2019-04-06T11:31:10.298Z,57.00
2019-04-06T11:33:55.005Z,58.80
2019-04-06T11:36:26.303Z,58.80
2019-04-06T11:39:00.861Z,59.20
2019-04-06T11:41:31.623Z,60.10
2019-04-06T11:44:15.311Z,59.10
2019-04-06T11:46:43.457Z,60.40
2019-04-06T11:49:23.742Z,59.40
2019-04-06T11:51:58.638Z,58.90
2019-04-06T11:54:26.787Z,59.30
2019-04-06T11:57:13.510Z,59.30
2019-04-06T11:59:53.660Z,58.60
2019-04-06T12:02:25.114Z,60.60
2019-04-06T12:05:10.004Z,59.30
2019-04-06T12:07:43.811Z,58.80
2019-04-06T12:10:27.993Z,58.20
2019-04-06T12:12:58.776Z,58.30
2019-04-06T12:15:41.957Z,58.70
2019-04-06T12:18:10.139Z,57.80
2019-04-06T12:20:38.334Z,57.30
2019-04-06T12:23:23.002Z,58.00
2019-04-06T12:26:06.096Z,59.00
2019-04-06T12:28:34.247Z,57.90
2019-04-06T12:31:05.345Z,57.30
2019-04-06T12:33:50.071Z,56.50
2019-04-06T12:36:18.365Z,57.40
2019-04-06T12:38:56.667Z,57.50
2019-04-06T12:41:33.795Z,56.30
2019-04-06T12:44:18.801Z,56.70
2019-04-06T12:46:55.762Z,57.00
2019-04-06T12:49:23.904Z,57.00
2019-04-06T12:52:09.262Z,57.00
2019-04-06T12:54:40.803Z,55.90
2019-04-06T12:57:21.133Z,56.50
2019-04-06T12:59:58.344Z,55.70
2019-04-06T13:02:26.933Z,55.60
2019-04-06T13:04:57.725Z,55.70
2019-04-06T13:07:42.405Z,55.70
2019-04-06T13:10:26.365Z,56.40
2019-04-06T13:13:03.458Z,55.80
2019-04-06T13:15:31.636Z,56.50
2019-04-06T13:18:12.189Z,55.80
2019-04-06T13:20:57.399Z,54.90
2019-04-06T13:23:25.814Z,55.60
2019-04-06T13:26:12.032Z,55.70
2019-04-06T13:28:58.244Z,56.40
2019-04-06T13:31:35.317Z,56.50
2019-04-06T13:34:18.749Z,55.80
2019-04-06T13:37:02.252Z,55.60
2019-04-06T13:39:45.001Z,55.50
2019-04-06T13:42:31.510Z,55.70
2019-04-06T13:45:18.231Z,56.10
2019-04-06T13:47:46.845Z,55.60
2019-04-06T13:50:26.958Z,55.90
2019-04-06T13:53:01.704Z,56.30
2019-04-06T13:55:30.012Z,56.00
2019-04-06T13:58:07.130Z,56.10
2019-04-06T14:00:35.408Z,56.10
2019-04-06T14:03:09.229Z,55.20
2019-04-06T14:05:39.976Z,56.40
2019-04-06T14:08:17.023Z,56.70
2019-04-06T14:11:02.289Z,56.90
2019-04-06T14:13:36.172Z,56.40
2019-04-06T14:16:07.965Z,56.40
2019-04-06T14:18:38.753Z,56.50
2019-04-06T14:21:13.467Z,56.50
2019-04-06T14:23:47.727Z,57.00
2019-04-06T14:26:18.763Z,57.40
2019-04-06T14:28:47.160Z,56.10
2019-04-06T14:31:29.953Z,56.40
2019-04-06T14:34:14.351Z,56.10
2019-04-06T14:36:54.994Z,56.50
2019-04-06T14:39:39.831Z,56.80
2019-04-06T14:42:23.946Z,56.90
2019-04-06T14:44:54.958Z,56.50
2019-04-06T14:47:38.099Z,56.50
2019-04-06T14:50:15.489Z,56.50
2019-04-06T14:53:01.637Z,56.40
2019-04-06T14:55:29.773Z,56.40
2019-04-06T14:58:00.595Z,55.70
2019-04-06T15:00:31.926Z,56.20
2019-04-06T15:03:00.076Z,56.40
2019-04-06T15:05:36.951Z,56.40
2019-04-06T15:08:08.075Z,56.70
2019-04-06T15:10:39.610Z,56.40
2019-04-06T15:13:10.513Z,57.10
2019-04-06T15:15:41.726Z,56.90
2019-04-06T15:18:22.158Z,56.70
2019-04-06T15:20:59.320Z,56.40
2019-04-06T15:23:27.912Z,56.40
2019-04-06T15:26:07.943Z,56.40
2019-04-06T15:28:36.112Z,56.40
2019-04-06T15:31:06.939Z,56.40
2019-04-06T15:33:35.296Z,56.40
2019-04-06T15:36:09.142Z,56.30
2019-04-06T15:38:40.197Z,56.30
2019-04-06T15:41:25.632Z,56.50
2019-04-06T15:44:06.292Z,56.60
2019-04-06T15:46:34.480Z,56.50
2019-04-06T15:49:19.135Z,56.20
2019-04-06T15:51:47.507Z,56.20
2019-04-06T15:54:21.388Z,56.20
2019-04-06T15:57:06.345Z,56.70
2019-04-06T15:59:51.467Z,56.90
2019-04-06T16:02:31.577Z,57.60
2019-04-06T16:05:16.070Z,56.30
2019-04-06T16:07:47.184Z,56.40
2019-04-06T16:10:24.982Z,56.70
2019-04-06T16:13:02.503Z,57.20
2019-04-06T16:15:39.539Z,57.00
2019-04-06T16:18:10.396Z,57.10
2019-04-06T16:20:38.755Z,57.20
2019-04-06T16:23:25.327Z,57.10
2019-04-06T16:25:53.577Z,56.90
2019-04-06T16:28:22.123Z,57.40
2019-04-06T16:30:59.251Z,57.50
2019-04-06T16:33:30.281Z,57.70
2019-04-06T16:36:13.810Z,57.80
2019-04-06T16:38:42.025Z,57.50
2019-04-06T16:41:19.287Z,57.60
2019-04-06T16:43:47.563Z,57.60
2019-04-06T16:46:16.203Z,57.00
2019-04-06T16:48:47.761Z,57.00
2019-04-06T16:51:15.958Z,57.10
2019-04-06T16:53:47.123Z,56.90
2019-04-06T16:56:24.826Z,56.90
2019-04-06T16:58:55.594Z,57.40
2019-04-06T17:01:26.396Z,57.20
2019-04-06T17:04:12.773Z,57.40
2019-04-06T17:06:41.023Z,58.20
2019-04-06T17:09:09.254Z,57.20
2019-04-06T17:11:37.388Z,57.30
2019-04-06T17:14:05.529Z,57.70
2019-04-06T17:16:36.695Z,57.10
2019-04-06T17:19:10.933Z,57.40
2019-04-06T17:21:45.490Z,57.00
2019-04-06T17:24:16.731Z,56.90
2019-04-06T17:26:48.073Z,57.50
2019-04-06T17:29:28.231Z,58.10
2019-04-06T17:32:02.085Z,57.90
2019-04-06T17:34:33.630Z,58.60
2019-04-06T17:37:02.890Z,58.50
2019-04-06T17:39:34.547Z,58.80
2019-04-06T17:42:11.444Z,58.80
2019-04-06T17:44:39.601Z,59.00
2019-04-06T17:47:13.679Z,59.20
2019-04-06T17:49:58.528Z,59.80
2019-04-06T17:52:29.678Z,59.80
2019-04-06T17:54:58.101Z,59.80
2019-04-06T17:57:26.376Z,60.30
2019-04-06T18:00:09.848Z,60.50
2019-04-06T18:02:50.552Z,60.60
2019-04-06T18:05:17.168Z,61.00
2019-04-06T18:07:54.468Z,61.50
2019-04-06T18:10:25.535Z,61.40
2019-04-06T18:13:02.841Z,61.50
2019-04-06T18:15:29.422Z,61.90
2019-04-06T18:17:56.079Z,61.90
2019-04-06T18:20:22.432Z,62.20
2019-04-06T18:22:48.970Z,62.20
2019-04-06T18:25:15.702Z,62.30
2019-04-06T18:27:42.012Z,62.70
2019-04-06T18:30:09.116Z,62.90
2019-04-06T18:32:43.252Z,63.10
2019-04-06T18:35:10.821Z,63.10
2019-04-06T18:37:44.877Z,63.00
2019-04-06T18:40:13.954Z,63.50
2019-04-06T18:42:40.622Z,63.20
2019-04-06T18:45:07.531Z,63.70
2019-04-06T18:47:33.913Z,63.40
2019-04-06T18:50:00.122Z,63.60
2019-04-06T18:52:26.367Z,63.90
2019-04-06T18:54:52.821Z,64.00
2019-04-06T18:57:20.149Z,64.10
2019-04-06T18:59:46.434Z,63.70
2019-04-06T19:02:12.978Z,63.80
2019-04-06T19:04:39.632Z,63.70
2019-04-06T19:07:06.169Z,64.10
2019-04-06T19:09:33.802Z,65.00
2019-04-06T19:12:00.770Z,64.50
2019-04-06T19:14:36.172Z,64.80
2019-04-06T19:17:03.015Z,64.90
2019-04-06T19:19:29.805Z,64.90
2019-04-06T19:21:57.139Z,65.00
2019-04-06T19:24:24.059Z,64.70
2019-04-06T19:26:50.935Z,64.90
2019-04-06T19:29:17.357Z,64.90
2019-04-06T19:31:47.883Z,65.40
2019-04-06T19:34:14.672Z,65.50
2019-04-06T19:36:41.421Z,65.20
2019-04-06T19:39:12.348Z,65.20
2019-04-06T19:41:40.631Z,65.30
2019-04-06T19:46:54.871Z,65.60
2019-04-06T19:49:23.051Z,65.30
2019-04-06T19:51:50.247Z,65.40
2019-04-06T19:54:17.607Z,65.30
2019-04-06T19:56:45.005Z,65.90
2019-04-06T19:59:13.465Z,65.30
2019-04-06T20:01:44.718Z,65.60
2019-04-06T20:04:12.186Z,65.70
2019-04-06T20:06:39.988Z,65.60
2019-04-06T20:09:08.585Z,65.50
2019-04-06T20:11:36.693Z,65.60
2019-04-06T20:14:04.384Z,65.50
2019-04-06T20:16:31.868Z,65.50
2019-04-06T20:18:59.037Z,65.80
2019-04-06T20:21:25.561Z,66.00
2019-04-06T20:23:51.819Z,66.10
2019-04-06T20:26:20.948Z,66.10
2019-04-06T20:28:47.224Z,65.70
2019-04-06T20:31:13.478Z,65.70
2019-04-06T20:33:48.165Z,65.80
2019-04-06T20:36:08.182Z,66.00
2019-04-06T20:38:34.460Z,66.20
2019-04-06T20:41:01.078Z,66.30
2019-04-06T20:43:27.600Z,66.40
2019-04-06T20:45:54.343Z,66.60
2019-04-06T20:48:20.690Z,66.80
2019-04-06T20:50:47.801Z,66.80
2019-04-06T20:53:14.577Z,67.10
2019-04-06T20:55:40.954Z,67.30
2019-04-06T20:58:07.333Z,67.50
2019-04-06T21:00:33.690Z,67.80
2019-04-06T21:02:59.909Z,68.20
2019-04-06T21:05:26.268Z,68.30
2019-04-06T21:07:52.557Z,68.30
2019-04-06T21:10:19.134Z,68.40
2019-04-06T21:12:45.564Z,68.30
2019-04-06T21:15:18.905Z,67.80
2019-04-06T21:17:40.258Z,67.80
2019-04-06T21:20:07.709Z,67.80
2019-04-06T21:22:34.208Z,67.90
2019-04-06T21:25:00.475Z,68.20
2019-04-06T21:27:27.111Z,68.20
2019-04-06T21:29:54.312Z,68.50
2019-04-06T21:32:20.772Z,68.60
2019-04-06T21:34:46.985Z,68.50
2019-04-06T21:37:13.418Z,68.70
2019-04-06T21:39:39.728Z,68.50
2019-04-06T21:42:06.000Z,68.30
2019-04-06T21:44:32.239Z,68.10
2019-04-06T21:46:59.036Z,68.30
2019-04-06T21:49:28.866Z,68.10
2019-04-06T21:51:55.314Z,68.40
2019-04-06T21:54:21.543Z,68.10
2019-04-06T21:56:47.919Z,68.20
2019-04-06T21:59:15.949Z,68.30
2019-04-06T22:01:42.468Z,68.50
2019-04-06T22:04:08.768Z,68.50
2019-04-06T22:06:48.939Z,68.70
2019-04-06T22:09:15.490Z,68.30
2019-04-06T22:11:42.403Z,68.00
2019-04-06T22:14:09.308Z,68.30
2019-04-06T22:16:35.673Z,68.20
2019-04-06T22:19:01.900Z,68.30
2019-04-06T22:21:34.641Z,68.50
2019-04-06T22:24:01.513Z,68.70
2019-04-06T22:26:27.756Z,68.20
2019-04-06T22:28:53.998Z,68.00
2019-04-06T22:31:20.230Z,68.10
2019-04-06T22:33:46.502Z,68.00
2019-04-06T22:36:12.921Z,68.10
2019-04-06T22:38:39.173Z,67.80
2019-04-06T22:41:05.698Z,67.60
2019-04-06T22:43:32.814Z,67.90
2019-04-06T22:45:59.930Z,68.00
2019-04-06T22:48:26.600Z,67.50
2019-04-06T22:50:52.860Z,67.60
2019-04-06T22:53:19.095Z,68.20
2019-04-06T22:55:45.848Z,68.00
2019-04-06T22:58:12.774Z,69.40
2019-04-06T23:00:48.500Z,69.70
2019-04-06T23:03:22.586Z,69.50
2019-04-06T23:05:57.265Z,69.40
2019-04-06T23:08:23.599Z,69.70
2019-04-06T23:10:50.416Z,69.70
2019-04-06T23:13:16.825Z,69.60
2019-04-06T23:15:43.040Z,70.00
2019-04-06T23:18:09.383Z,69.80
2019-04-06T23:20:35.601Z,69.70
2019-04-06T23:23:02.227Z,69.70
2019-04-06T23:25:28.885Z,69.80
2019-04-06T23:27:55.686Z,70.10
2019-04-06T23:30:21.892Z,70.30
2019-04-06T23:32:48.132Z,70.40
2019-04-06T23:35:14.367Z,70.60
2019-04-06T23:37:40.588Z,70.70
2019-04-06T23:40:07.458Z,70.90
2019-04-06T23:42:33.699Z,71.20
2019-04-06T23:45:00.094Z,71.30
2019-04-06T23:47:27.343Z,71.20
2019-04-06T23:49:53.710Z,71.40
2019-04-06T23:52:20.064Z,71.60
2019-04-06T23:54:46.289Z,71.90
2019-04-06T23:57:12.998Z,72.10
2019-04-06T23:59:39.577Z,72.30
